Time;durP1;ratioP1;P1;durP2;ratioP2;P2;SDS_P1;SDS_P2;PMS_P1;PMS_P2;Temp;Humidity;BMP_temperature;BMP_pressure;BME280_temperature;BME280_humidity;BME280_pressure;Samples;Min_cycle;Max_cycle;Signal;HPM_P1;HPM_P2
2021/08/13 00:01:58;;;;;;;11.95;10.95;;;19.40;99.90;;;20.41;81.72;98315.44;5164243;28;20672;-78
2021/08/13 00:04:31;;;;;;;11.20;10.20;;;19.40;99.90;;;20.36;82.30;98314.41;5165112;28;20209;-78
2021/08/13 00:07:05;;;;;;;12.38;11.13;;;19.40;99.90;;;20.33;82.75;98314.34;5180756;28;20246;-78
2021/08/13 00:09:38;;;;;;;11.70;10.68;;;19.30;99.90;;;20.27;82.76;98317.66;5176341;28;20674;-77
2021/08/13 00:12:11;;;;;;;11.63;10.52;;;19.30;99.90;;;20.22;82.80;98311.47;5176004;28;20241;-77
2021/08/13 00:14:44;;;;;;;11.13;10.13;;;19.30;99.90;;;20.21;83.09;98315.78;5176613;28;20270;-78
2021/08/13 00:17:19;;;;;;;11.80;10.77;;;19.30;99.90;;;20.24;83.03;98305.47;5171226;28;20293;-77
2021/08/13 00:19:52;;;;;;;11.60;10.60;;;19.30;99.90;;;20.20;83.43;98311.44;5180749;28;20197;-77
2021/08/13 00:22:25;;;;;;;11.75;10.68;;;19.20;99.90;;;20.19;83.90;98317.44;5182272;28;20209;-78
2021/08/13 00:24:58;;;;;;;11.70;10.55;;;19.30;99.90;;;20.13;83.12;98306.03;5166306;28;20210;-78
2021/08/13 00:27:31;;;;;;;12.80;11.68;;;19.10;99.90;;;19.98;83.22;98306.50;5178211;28;20203;-77
2021/08/13 00:30:05;;;;;;;12.02;10.90;;;19.00;99.90;;;20.00;83.17;98315.19;5170639;28;20323;-78
2021/08/13 00:32:40;;;;;;;11.73;10.63;;;19.10;99.90;;;19.98;83.31;98316.88;5166211;28;20193;-78
2021/08/13 00:35:13;;;;;;;11.68;10.63;;;19.00;99.90;;;19.96;83.15;98313.38;5177058;28;20209;-77
2021/08/13 00:37:46;;;;;;;11.13;10.13;;;19.00;99.90;;;20.00;84.26;98317.78;5168788;28;20203;-78
2021/08/13 00:40:19;;;;;;;12.35;11.25;;;19.10;99.90;;;19.99;84.40;98321.22;5168968;28;20219;-77
2021/08/13 00:42:52;;;;;;;12.45;11.20;;;19.10;99.90;;;19.97;85.04;98320.28;5167970;28;20729;-78
2021/08/13 00:45:26;;;;;;;11.93;10.98;;;19.10;99.90;;;19.98;85.23;98317.75;5175873;28;20229;-78
2021/08/13 00:48:00;;;;;;;12.02;11.02;;;19.10;99.90;;;20.00;84.80;98320.38;5181594;28;20290;-78
2021/08/13 00:50:34;;;;;;;11.38;10.38;;;19.10;99.90;;;20.02;84.74;98321.31;5175875;28;20245;-77
2021/08/13 00:53:09;;;;;;;12.52;11.43;;;19.10;99.90;;;20.01;83.79;98314.38;5169433;28;20274;-77
2021/08/13 00:55:42;;;;;;;12.02;10.93;;;19.00;99.90;;;19.99;83.88;98310.84;5165693;28;20201;-78
2021/08/13 00:58:16;;;;;;;11.00;10.07;;;19.00;99.90;;;19.94;83.50;98307.25;5173618;28;20206;-78
2021/08/13 01:00:52;;;;;;;12.35;11.25;;;19.00;99.90;;;19.84;83.35;98313.03;5167811;28;20218;-78
2021/08/13 01:03:28;;;;;;;12.02;11.02;;;18.80;99.90;;;19.83;84.29;98322.53;5172731;28;20213;-78
2021/08/13 01:06:01;;;;;;;12.32;11.27;;;18.90;99.90;;;19.84;85.45;98323.41;5165947;28;20246;-77
2021/08/13 01:08:34;;;;;;;11.75;10.65;;;18.90;99.90;;;19.84;84.50;98326.00;5177134;28;20206;-77
2021/08/13 01:11:16;;;;;;;11.70;10.65;;;18.90;99.90;;;19.87;84.73;98324.38;5167517;28;20242;-77
2021/08/13 01:13:57;;;;;;;13.18;11.30;;;19.00;99.90;;;19.91;84.41;98321.00;5169332;28;20297;-78
2021/08/13 01:16:31;;;;;;;11.95;10.88;;;18.90;99.90;;;19.92;84.16;98320.19;5178474;28;20226;-78
2021/08/13 01:19:14;;;;;;;12.30;11.05;;;18.90;99.90;;;19.88;83.64;98320.06;5175528;28;20265;-77
2021/08/13 01:21:53;;;;;;;11.57;10.48;;;18.80;99.90;;;19.78;83.25;98317.22;5175059;28;20227;-78
2021/08/13 01:24:28;;;;;;;10.90;9.90;;;18.70;99.90;;;19.69;82.58;98318.69;5165955;28;20270;-78
2021/08/13 01:27:07;;;;;;;11.10;10.20;;;18.50;99.90;;;19.57;83.30;98316.56;5163962;28;20290;-77
2021/08/13 01:29:46;;;;;;;11.70;10.70;;;18.50;99.90;;;19.49;83.70;98320.66;5165719;28;20229;-78
2021/08/13 01:32:36;;;;;;;10.63;9.82;;;18.40;99.90;;;19.46;84.22;98326.63;5163554;28;20214;-77
2021/08/13 01:35:14;;;;;;;12.20;11.10;;;18.50;99.90;;;19.48;85.01;98317.16;5159649;28;20280;-77
2021/08/13 01:37:53;;;;;;;11.93;10.82;;;18.50;99.90;;;19.46;85.12;98316.25;5168535;28;20294;-78
2021/08/13 01:40:28;;;;;;;12.02;10.82;;;18.50;99.90;;;19.44;84.76;98317.03;5173426;28;20668;-78
2021/08/13 01:43:02;;;;;;;12.73;11.52;;;18.50;99.90;;;19.31;85.74;98313.19;5170852;28;20199;-77
2021/08/13 01:45:37;;;;;;;11.48;10.38;;;18.40;99.90;;;19.33;85.28;98320.19;5177876;28;20252;-78
2021/08/13 01:48:13;;;;;;;12.18;11.07;;;18.40;99.90;;;19.43;85.76;98317.88;5162899;28;20282;-77
2021/08/13 01:50:47;;;;;;;12.30;11.30;;;18.50;99.90;;;19.39;85.55;98318.63;5176194;28;20328;-78
2021/08/13 01:53:22;;;;;;;12.18;11.07;;;18.50;99.90;;;19.33;85.74;98311.53;5171476;28;20213;-78
2021/08/13 01:55:56;;;;;;;12.43;11.40;;;18.40;99.90;;;19.28;86.17;98320.88;5165831;28;20203;-77
2021/08/13 01:58:30;;;;;;;12.82;11.60;;;18.40;99.90;;;19.29;86.93;98323.53;5165064;28;20292;-78
2021/08/13 02:01:03;;;;;;;12.73;11.63;;;18.40;99.90;;;19.33;87.30;98325.38;5170092;28;20310;-78
2021/08/13 02:03:39;;;;;;;12.18;11.18;;;18.50;99.90;;;19.40;87.25;98335.91;5167638;28;20199;-78
2021/08/13 02:06:13;;;;;;;11.75;10.75;;;18.50;99.90;;;19.34;86.91;98331.44;5166375;28;20309;-78
2021/08/13 02:08:47;;;;;;;12.98;11.82;;;18.40;99.90;;;19.32;87.73;98331.41;5173181;28;20203;-78
2021/08/13 02:11:20;;;;;;;12.23;11.02;;;18.50;99.90;;;19.35;87.49;98339.28;5167100;28;20623;-78
2021/08/13 02:13:54;;;;;;;12.82;11.63;;;18.50;99.90;;;19.39;87.66;98334.19;5166727;28;20209;-77
2021/08/13 02:16:31;;;;;;;12.27;11.18;;;18.60;99.90;;;19.40;86.94;98325.56;5164189;28;20703;-77
2021/08/13 02:19:10;;;;;;;11.98;10.80;;;18.60;99.90;;;19.47;86.84;98336.16;5174246;28;20190;-78
2021/08/13 02:21:47;;;;;;;12.43;11.30;;;18.60;99.90;;;19.48;87.05;98337.03;5177392;28;20708;-77
2021/08/13 02:24:20;;;;;;;13.68;12.48;;;18.60;99.90;;;19.49;87.14;98333.63;5164428;28;20278;-77
2021/08/13 02:26:54;;;;;;;11.70;10.60;;;18.60;99.90;;;19.48;86.99;98334.44;5173482;28;20210;-77
2021/08/13 02:29:27;;;;;;;12.55;11.55;;;18.60;99.90;;;19.44;86.27;98338.66;5166749;28;20310;-78
2021/08/13 02:32:00;;;;;;;12.48;11.27;;;18.50;99.90;;;19.41;86.42;98332.53;5172653;28;20237;-77
2021/08/13 02:34:35;;;;;;;11.75;10.75;;;18.50;99.90;;;19.46;86.90;98336.09;5173219;28;20401;-78
2021/08/13 02:37:15;;;;;;;11.88;10.85;;;18.50;99.90;;;19.41;86.91;98337.69;5170355;28;20806;-78
2021/08/13 02:39:54;;;;;;;12.45;11.15;;;18.50;99.90;;;19.40;86.68;98335.91;5169322;28;20199;-78
2021/08/13 02:42:38;;;;;;;11.40;10.40;;;18.40;99.90;;;19.41;86.61;98335.09;5175704;28;20446;-77
2021/08/13 02:45:15;;;;;;;12.38;11.27;;;18.50;99.90;;;19.38;86.72;98338.50;5166891;28;20211;-77
2021/08/13 02:47:51;;;;;;;11.65;10.68;;;18.50;99.90;;;19.35;86.44;98322.84;5167356;28;20286;-78
2021/08/13 02:50:29;;;;;;;12.07;11.07;;;18.40;99.90;;;19.41;86.11;98316.97;5165818;28;20768;-78
2021/08/13 02:53:06;;;;;;;11.07;10.18;;;18.40;99.90;;;19.35;86.03;98318.53;5173103;28;20293;-78
2021/08/13 02:55:46;;;;;;;11.15;10.18;;;18.40;99.90;;;19.33;86.06;98321.91;5166894;28;20907;-78
2021/08/13 02:58:23;;;;;;;11.43;10.43;;;18.40;99.90;;;19.33;86.21;98320.19;5159812;28;20639;-78
2021/08/13 03:00:58;;;;;;;12.68;11.50;;;18.40;99.90;;;19.29;86.09;98313.16;5162753;28;20702;-78
2021/08/13 03:03:32;;;;;;;12.15;10.95;;;18.40;99.90;;;19.28;86.07;98308.78;5167108;28;20596;-77
2021/08/13 03:06:09;;;;;;;11.75;10.65;;;18.30;99.90;;;19.25;85.94;98311.31;5170149;28;20278;-77
2021/08/13 03:08:43;;;;;;;12.35;11.23;;;18.30;99.90;;;19.27;86.63;98313.94;5179955;28;20212;-78
2021/08/13 03:11:18;;;;;;;12.63;11.60;;;18.30;99.90;;;19.29;87.09;98315.75;5167166;28;20248;-78
2021/08/13 03:13:51;;;;;;;12.55;11.45;;;18.40;99.90;;;19.24;86.77;98317.31;5173093;28;20238;-77
2021/08/13 03:16:25;;;;;;;11.73;10.70;;;18.30;99.90;;;19.21;87.20;98329.31;5176143;28;20287;-78
2021/08/13 03:18:58;;;;;;;12.60;11.30;;;18.30;99.90;;;19.16;87.72;98326.56;5184229;28;20226;-78
2021/08/13 03:21:33;;;;;;;11.80;10.80;;;18.20;99.90;;;19.17;86.71;98328.31;5173581;28;20223;-78
2021/08/13 03:24:07;;;;;;;10.98;10.05;;;18.20;99.90;;;19.18;86.27;98319.75;5176663;28;20218;-77
2021/08/13 03:26:41;;;;;;;11.38;10.27;;;18.20;99.90;;;19.18;86.72;98324.91;5170231;28;20195;-77
2021/08/13 03:29:14;;;;;;;11.60;10.48;;;18.20;99.90;;;19.19;86.21;98323.19;5182636;28;20203;-78
2021/08/13 03:31:48;;;;;;;12.30;11.18;;;18.20;99.90;;;19.08;86.26;98317.69;5166592;28;20241;-77
2021/08/13 03:34:21;;;;;;;12.35;11.15;;;18.10;99.90;;;19.10;86.79;98313.44;5167730;28;20361;-77
2021/08/13 03:36:57;;;;;;;11.60;10.70;;;18.10;99.90;;;19.05;86.82;98315.88;5167294;28;20199;-77
2021/08/13 03:39:30;;;;;;;11.93;10.85;;;18.10;99.90;;;19.08;87.08;98320.28;5175119;28;20231;-77
2021/08/13 03:42:04;;;;;;;12.05;11.00;;;18.10;99.90;;;19.12;87.52;98316.97;5172294;28;20690;-77
2021/08/13 03:44:37;;;;;;;12.70;11.50;;;18.20;99.90;;;19.13;87.94;98316.13;5177963;28;20277;-78
2021/08/13 03:47:10;;;;;;;13.40;12.18;;;18.20;99.90;;;19.18;88.00;98324.91;5168216;28;20589;-77
2021/08/13 03:49:43;;;;;;;12.52;11.43;;;18.30;99.90;;;19.23;87.89;98318.16;5178338;28;20202;-77
2021/08/13 03:52:17;;;;;;;12.15;11.07;;;18.30;99.90;;;19.25;88.09;98323.38;5175498;28;20235;-77
2021/08/13 03:54:50;;;;;;;12.98;11.77;;;18.30;99.90;;;19.25;87.79;98321.66;5174559;28;20199;-78
2021/08/13 03:57:23;;;;;;;12.48;11.45;;;18.40;99.90;;;19.24;88.06;98324.22;5173408;28;20199;-78
2021/08/13 03:59:56;;;;;;;12.40;11.30;;;18.40;99.90;;;19.23;88.15;98325.94;5174388;28;20207;-77
2021/08/13 04:02:29;;;;;;;12.10;10.90;;;18.30;99.90;;;19.27;87.27;98330.38;5167222;28;20582;-77
2021/08/13 04:05:03;;;;;;;13.52;12.27;;;18.30;99.90;;;19.31;87.78;98332.22;5178411;28;20195;-77
2021/08/13 04:07:38;;;;;;;12.75;11.57;;;18.50;99.90;;;19.30;88.00;98338.25;5172055;28;20231;-77
2021/08/13 04:10:11;;;;;;;13.00;11.80;;;18.40;99.90;;;19.34;88.00;98340.13;5172355;28;20227;-77
2021/08/13 04:12:44;;;;;;;13.57;12.38;;;18.50;99.90;;;19.44;88.18;98359.41;5170483;28;20222;-77
2021/08/13 04:15:17;;;;;;;13.18;11.98;;;18.60;99.90;;;19.51;87.54;98350.09;5183289;28;20290;-78
2021/08/13 04:17:51;;;;;;;13.32;12.23;;;18.60;99.90;;;19.55;86.41;98357.16;5169463;28;20214;-78
2021/08/13 04:20:24;;;;;;;12.88;11.75;;;18.60;99.90;;;19.55;86.62;98358.03;5171588;28;20309;-77
2021/08/13 04:22:58;;;;;;;12.15;10.95;;;18.60;99.90;;;19.56;86.49;98356.28;5176233;28;20205;-77
2021/08/13 04:25:32;;;;;;;12.55;11.38;;;18.60;99.90;;;19.56;86.04;98353.69;5173621;28;20284;-78
2021/08/13 04:28:05;;;;;;;13.43;12.23;;;18.60;99.90;;;19.60;86.15;98352.94;5167690;28;20203;-77
2021/08/13 04:30:38;;;;;;;13.07;11.73;;;18.60;99.90;;;19.57;86.09;98360.63;5167904;28;20237;-78
2021/08/13 04:33:14;;;;;;;12.23;11.13;;;18.60;99.90;;;19.52;86.05;98360.53;5167054;28;20577;-78
2021/08/13 04:35:48;;;;;;;12.65;11.45;;;18.50;99.90;;;19.49;86.56;98354.38;5171603;28;20291;-79
2021/08/13 04:38:23;;;;;;;12.52;11.40;;;18.50;99.90;;;19.50;86.67;98361.31;5170389;28;20209;-78
2021/08/13 04:40:56;;;;;;;11.93;10.90;;;18.50;99.90;;;19.52;86.99;98354.47;5178992;28;20246;-77
2021/08/13 04:43:29;;;;;;;12.02;10.93;;;18.60;99.90;;;19.52;86.91;98357.06;5180472;28;20238;-77
2021/08/13 04:46:02;;;;;;;12.63;11.52;;;18.60;99.90;;;19.51;87.25;98360.47;5175821;28;20207;-77
2021/08/13 04:48:35;;;;;;;11.50;10.40;;;18.60;99.90;;;19.50;86.83;98350.94;5166442;28;20227;-77
2021/08/13 04:51:09;;;;;;;13.63;12.43;;;18.60;99.90;;;19.48;87.20;98360.38;5174484;28;20315;-78
2021/08/13 04:53:43;;;;;;;13.05;11.85;;;18.50;99.90;;;19.43;86.77;98361.94;5170926;28;20206;-78
2021/08/13 04:56:16;;;;;;;13.27;12.00;;;18.50;99.90;;;19.39;86.99;98358.38;5163476;28;20214;-77
2021/08/13 04:58:49;;;;;;;13.35;12.20;;;18.50;99.90;;;19.40;87.37;98359.25;5162198;28;20209;-78
2021/08/13 05:01:22;;;;;;;12.30;11.10;;;18.50;99.90;;;19.41;87.63;98363.63;5168253;28;20229;-77
2021/08/13 05:03:56;;;;;;;12.65;11.43;;;18.50;99.90;;;19.48;87.13;98363.84;5169937;28;20694;-78
2021/08/13 05:06:29;;;;;;;11.55;10.60;;;18.50;99.90;;;19.53;86.95;98379.53;5176512;28;20207;-77
2021/08/13 05:09:03;;;;;;;12.73;11.63;;;18.60;99.90;;;19.52;86.74;98380.41;5165274;28;20844;-77
2021/08/13 05:11:37;;;;;;;12.50;11.30;;;18.60;99.90;;;19.54;86.84;98376.09;5171096;28;20226;-78
2021/08/13 05:14:10;;;;;;;12.80;11.65;;;18.60;99.90;;;19.54;87.29;98383.88;5168253;28;20294;-78
2021/08/13 05:16:43;;;;;;;12.35;11.25;;;18.60;99.90;;;19.56;86.63;98384.81;5156045;28;20195;-77
2021/08/13 05:19:16;;;;;;;13.30;12.00;;;18.60;99.90;;;19.55;86.16;98386.53;5157509;28;20652;-78
2021/08/13 05:21:49;;;;;;;13.23;11.93;;;18.60;99.90;;;19.54;86.29;98386.47;5158377;28;20226;-78
2021/08/13 05:24:23;;;;;;;12.27;11.18;;;18.60;99.90;;;19.52;86.56;98380.41;5159922;28;20666;-78
2021/08/13 05:26:56;;;;;;;13.77;12.35;;;18.60;99.90;;;19.49;86.60;98382.91;5158523;28;20270;-78
2021/08/13 05:29:29;;;;;;;12.77;11.68;;;18.60;99.90;;;19.48;87.29;98386.31;5159473;28;20742;-77
2021/08/13 05:32:03;;;;;;;12.95;11.70;;;18.60;99.90;;;19.46;87.49;98382.78;5156385;28;20227;-78
2021/08/13 05:34:38;;;;;;;13.48;12.27;;;18.60;99.90;;;19.51;87.46;98386.38;5158775;28;20600;-77
2021/08/13 05:37:11;;;;;;;13.63;12.43;;;18.60;99.90;;;19.55;86.67;98385.66;5157773;28;20230;-77
2021/08/13 05:39:46;;;;;;;13.00;11.90;;;18.60;99.90;;;19.61;86.44;98404.00;5156955;28;20210;-78
2021/08/13 05:42:19;;;;;;;13.45;12.05;;;18.70;99.90;;;19.61;86.57;98398.81;5159438;28;20224;-78
2021/08/13 05:44:52;;;;;;;13.73;12.40;;;18.70;99.90;;;19.68;86.76;98390.41;5156143;28;20247;-77
2021/08/13 05:47:26;;;;;;;12.93;11.82;;;18.80;99.90;;;19.71;87.05;98390.50;5154394;28;20203;-77
2021/08/13 05:49:59;;;;;;;12.75;11.65;;;18.80;99.90;;;19.78;86.77;98392.44;5160671;28;20209;-76
2021/08/13 05:52:32;;;;;;;14.57;13.07;;;18.90;99.90;;;19.90;86.68;98388.44;5157874;28;20210;-78
2021/08/13 05:55:08;;;;;;;14.60;13.23;;;19.00;99.90;;;19.85;85.96;98388.31;5154515;28;20206;-78
2021/08/13 05:57:41;;;;;;;13.82;12.43;;;18.90;99.90;;;19.86;85.87;98389.19;5158224;28;20199;-78
2021/08/13 06:00:16;;;;;;;14.07;12.77;;;18.90;99.90;;;19.95;86.19;98394.66;5155647;28;20231;-77
2021/08/13 06:02:58;;;;;;;14.13;12.93;;;19.00;99.90;;;20.08;85.70;98386.34;5156074;28;20205;-77
2021/08/13 06:05:31;;;;;;;14.77;13.38;;;19.10;99.90;;;20.18;84.96;98388.38;5157992;28;20203;-78
2021/08/13 06:08:05;;;;;;;13.93;12.68;;;19.20;99.90;;;20.27;84.37;98381.69;5151262;28;20334;-77
2021/08/13 06:10:39;;;;;;;14.50;13.10;;;19.20;99.90;;;20.27;84.23;98386.88;5152320;28;20223;-78
2021/08/13 06:13:12;;;;;;;14.18;12.98;;;19.20;99.90;;;20.36;84.33;98381.94;5153534;28;20218;-78
2021/08/13 06:15:46;;;;;;;14.02;12.73;;;19.30;99.90;;;20.49;84.22;98384.03;5155939;28;20233;-78
2021/08/13 06:18:19;;;;;;;14.48;13.15;;;19.40;99.90;;;20.81;83.49;98376.22;5153512;28;20207;-76
2021/08/13 06:20:52;;;;;;;14.48;13.00;;;19.70;99.90;;;21.36;82.17;98369.72;5154872;28;20227;-76
2021/08/13 06:23:25;;;;;;;14.57;13.27;;;20.20;99.90;;;21.78;79.18;98372.41;5160685;28;20205;-76
2021/08/13 06:26:00;;;;;;;14.73;13.38;;;20.60;99.90;;;21.77;77.63;98372.34;5162564;28;20199;-76
2021/08/13 06:28:33;;;;;;;14.65;13.25;;;20.50;99.90;;;22.05;77.44;98377.28;5163068;28;20905;-76
2021/08/13 06:31:06;;;;;;;13.27;12.07;;;20.70;99.90;;;22.60;75.22;98381.81;5161724;28;20306;-76
2021/08/13 06:33:39;;;;;;;13.65;12.45;;;21.10;99.90;;;23.29;72.51;98376.03;5159021;28;20266;-76
2021/08/13 06:36:12;;;;;;;14.40;13.10;;;21.80;99.90;;;23.86;69.30;98381.16;5163364;28;20670;-76
2021/08/13 06:38:45;;;;;;;13.45;12.25;;;22.30;99.90;;;24.43;68.56;98385.34;5174184;28;20674;-77
2021/08/13 06:41:20;;;;;;;13.45;12.13;;;22.80;99.90;;;25.02;65.73;98384.16;5165832;28;20254;-77
2021/08/13 06:43:53;;;;;;;13.18;12.07;;;23.30;99.90;;;25.34;64.16;98394.88;5167706;28;20281;-76
2021/08/13 06:46:26;;;;;;;14.27;12.40;;;23.60;99.90;;;25.95;61.77;98392.63;5173292;28;20753;-77
2021/08/13 06:48:59;;;;;;;13.52;12.38;;;24.10;99.90;;;26.15;61.66;98399.69;5174322;28;20202;-77
2021/08/13 06:51:32;;;;;;;14.00;12.70;;;24.20;99.90;;;26.44;60.97;98403.31;5179470;28;20301;-77
2021/08/13 06:54:05;;;;;;;11.98;10.77;;;24.40;99.90;;;26.86;59.68;98401.63;5170019;28;20219;-76
2021/08/13 06:56:40;;;;;;;12.07;10.98;;;24.90;99.90;;;27.24;58.60;98403.41;5172002;28;20207;-77
2021/08/13 06:59:13;;;;;;;12.68;11.48;;;25.10;99.90;;;27.70;57.31;98412.97;5181747;28;20276;-77
2021/08/13 07:01:46;;;;;;;13.07;11.98;;;25.40;99.90;;;27.93;56.00;98405.03;5166787;28;20428;-77
2021/08/13 07:04:19;;;;;;;11.93;10.95;;;25.50;99.90;;;28.08;54.85;98407.63;5174197;28;20198;-77
2021/08/13 07:06:52;;;;;;;12.32;11.07;;;25.60;99.90;;;28.25;55.20;98415.44;5174233;28;20288;-77
2021/08/13 07:09:25;;;;;;;13.00;11.82;;;25.70;99.90;;;28.46;54.07;98422.38;5173691;28;20648;-77
2021/08/13 07:12:00;;;;;;;13.10;11.68;;;25.90;99.90;;;28.51;53.32;98420.59;5175248;28;20305;-76
2021/08/13 07:14:33;;;;;;;13.05;11.85;;;26.30;99.90;;;28.87;53.19;98414.25;5165614;28;20249;-77
2021/08/13 07:17:06;;;;;;;11.88;10.77;;;26.40;99.90;;;28.71;53.72;98423.97;5177645;28;20226;-77
2021/08/13 07:19:39;;;;;;;12.20;11.10;;;26.30;99.90;;;28.49;53.81;98417.09;5170516;28;20713;-76
2021/08/13 07:22:12;;;;;;;12.27;11.18;;;26.10;99.90;;;28.15;54.34;98424.25;5176208;28;20214;-77
2021/08/13 07:24:45;;;;;;;12.73;11.63;;;25.80;99.90;;;27.71;55.97;98425.25;5167448;28;20282;-77
2021/08/13 07:27:20;;;;;;;12.48;11.38;;;25.60;99.90;;;27.49;56.63;98419.16;5168827;28;20198;-77
2021/08/13 07:29:53;;;;;;;12.60;11.48;;;25.40;99.90;;;27.31;57.40;98423.53;5168354;28;20678;-77
2021/08/13 07:32:26;;;;;;;13.30;12.10;;;25.40;99.90;;;27.66;56.48;98422.63;5165306;28;20662;-77
2021/08/13 07:34:59;;;;;;;12.52;11.43;;;25.60;99.90;;;27.98;55.98;98422.53;5171987;28;20199;-76
2021/08/13 07:37:32;;;;;;;13.80;12.57;;;25.70;99.90;;;28.60;54.11;98433.69;5171029;28;20289;-76
2021/08/13 07:40:07;;;;;;;12.90;11.70;;;26.10;99.90;;;29.16;51.74;98427.19;5172999;28;20202;-76
2021/08/13 07:42:42;;;;;;;12.68;11.60;;;26.50;99.90;;;29.81;51.04;98432.72;5172713;28;20297;-77
2021/08/13 07:45:16;;;;;;;12.43;11.35;;;27.10;99.90;;;30.39;48.66;98430.31;5166959;28;20225;-77
2021/08/13 07:47:50;;;;;;;11.85;10.70;;;27.60;99.90;;;30.42;48.99;98430.28;5173541;28;20289;-77
2021/08/13 07:50:25;;;;;;;12.20;11.10;;;27.90;99.90;;;31.19;47.26;98425.63;5164040;28;20223;-76
2021/08/13 07:53:00;;;;;;;12.38;11.18;;;28.10;99.90;;;31.11;47.17;98426.66;5166166;28;20744;-77
2021/08/13 07:55:33;;;;;;;12.38;10.88;;;28.40;99.90;;;31.05;47.26;98430.28;5173134;28;20258;-77
2021/08/13 07:58:08;;;;;;;12.05;10.73;;;28.50;99.90;;;30.86;47.52;98432.31;5175310;28;20202;-77
2021/08/13 08:00:41;;;;;;;11.60;10.60;;;28.80;99.90;;;30.91;47.37;98422.56;5166650;28;20606;-76
2021/08/13 08:03:14;;;;;;;11.02;10.07;;;28.90;99.90;;;30.96;48.28;98425.13;5178258;28;20202;-77
2021/08/13 08:05:47;;;;;;;11.50;10.50;;;29.00;99.90;;;31.08;47.59;98426.72;5170505;28;20666;-76
2021/08/13 08:08:20;;;;;;;12.07;11.07;;;29.30;99.40;;;31.17;46.42;98423.91;5159259;28;20689;-76
2021/08/13 08:10:53;;;;;;;11.27;10.38;;;29.40;98.60;;;31.23;47.21;98425.59;5182467;28;20214;-77
2021/08/13 08:13:28;;;;;;;11.50;10.40;;;29.50;99.20;;;31.38;47.30;98420.94;5167218;28;20666;-77
2021/08/13 08:16:02;;;;;;;11.88;10.75;;;29.50;99.10;;;31.54;47.15;98420.66;5169870;28;20286;-77
2021/08/13 08:18:36;;;;;;;11.02;10.13;;;29.70;98.70;;;31.41;47.14;98427.94;5181639;28;20198;-76
2021/08/13 08:21:09;;;;;;;11.55;10.65;;;29.80;98.80;;;31.41;46.39;98436.72;5177299;28;20214;-77
2021/08/13 08:23:42;;;;;;;11.10;10.20;;;29.80;98.30;;;31.51;46.69;98436.59;5175607;28;20186;-77
2021/08/13 08:26:15;;;;;;;11.20;10.20;;;29.80;98.50;;;31.70;45.81;98443.25;5176120;28;20194;-77
2021/08/13 08:28:49;;;;;;;11.45;10.35;;;30.10;97.40;;;31.91;45.92;98436.75;5171528;28;20197;-77
2021/08/13 08:31:22;;;;;;;11.80;10.63;;;30.20;97.80;;;32.18;44.91;98440.59;5170618;28;20302;-76
2021/08/13 08:33:55;;;;;;;10.95;9.90;;;30.50;97.30;;;32.04;44.41;98442.66;5174117;28;20616;-77
2021/08/13 08:36:28;;;;;;;9.70;8.90;;;30.40;96.40;;;32.08;43.22;98433.78;5167989;28;20203;-76
2021/08/13 08:39:02;;;;;;;10.38;9.48;;;30.10;96.20;;;31.84;43.84;98441.22;5180179;28;20199;-77
2021/08/13 08:41:35;;;;;;;9.70;8.70;;;30.00;96.40;;;31.76;43.95;98448.44;5174432;28;20225;-77
2021/08/13 08:44:10;;;;;;;10.32;9.43;;;30.00;96.30;;;31.78;44.53;98451.06;5172191;28;20277;-77
2021/08/13 08:46:45;;;;;;;10.82;9.93;;;30.00;96.60;;;31.79;44.56;98453.69;5167692;28;20202;-77
2021/08/13 08:49:19;;;;;;;10.32;9.43;;;30.30;96.40;;;31.89;44.78;98451.72;5173274;28;20644;-77
2021/08/13 08:51:55;;;;;;;10.95;9.50;;;30.40;97.10;;;32.13;44.31;98452.19;5182844;28;20768;-77
2021/08/13 08:54:29;;;;;;;9.63;8.88;;;30.80;95.90;;;32.16;43.47;98447.69;5166889;28;20222;-77
2021/08/13 08:57:03;;;;;;;10.70;9.70;;;30.60;95.50;;;32.22;43.68;98450.22;5176044;28;20194;-77
2021/08/13 08:59:47;;;;;;;10.10;9.20;;;30.70;95.50;;;31.90;44.79;98444.66;5181697;28;20677;-77
2021/08/13 09:02:21;;;;;;;10.98;9.85;;;30.60;96.00;;;32.16;44.39;98442.38;5177009;28;20197;-77
2021/08/13 09:04:54;;;;;;;9.85;8.90;;;30.80;95.90;;;32.16;44.20;98437.09;5169129;28;20187;-76
2021/08/13 09:07:28;;;;;;;9.65;8.75;;;30.80;95.50;;;32.30;44.04;98437.69;5184990;28;20202;-76
2021/08/13 09:10:02;;;;;;;9.55;8.75;;;30.90;95.30;;;32.41;42.80;98447.19;5175306;28;20290;-77
2021/08/13 09:12:35;;;;;;;10.15;9.15;;;31.00;94.90;;;32.01;44.67;98446.22;5172085;28;20766;-76
2021/08/13 09:15:27;;;;;;;10.32;9.32;;;30.90;95.30;;;32.06;43.74;98441.72;5175312;28;20650;-77
2021/08/13 09:18:18;;;;;;;9.68;8.77;;;30.80;94.90;;;32.19;43.93;98442.31;5174070;28;20736;-77
2021/08/13 09:20:53;;;;;;;9.48;8.48;;;30.80;95.10;;;32.38;43.14;98453.41;5170464;28;20218;-77
2021/08/13 09:23:37;;;;;;;9.63;8.77;;;31.00;94.90;;;32.34;44.09;98456.16;5173847;28;20201;-77
2021/08/13 09:26:12;;;;;;;9.25;8.45;;;31.10;95.60;;;32.46;45.67;98461.22;5174529;28;20200;-77
2021/08/13 09:28:48;;;;;;;9.43;8.52;;;31.30;96.00;;;32.52;41.73;98456.66;5176446;28;20280;-78
2021/08/13 09:31:26;;;;;;;9.77;8.80;;;31.30;93.70;;;32.49;42.41;98461.16;5168539;28;20223;-77
2021/08/13 09:34:09;;;;;;;8.35;7.60;;;31.20;93.90;;;32.62;42.09;98453.81;5178518;28;20273;-76
2021/08/13 09:36:54;;;;;;;9.40;8.55;;;31.30;93.80;;;32.52;42.84;98456.66;5164884;28;20282;-77
2021/08/13 09:39:31;;;;;;;8.77;8.07;;;31.10;94.70;;;32.47;43.12;98462.97;5166580;28;20199;-77
2021/08/13 09:42:08;;;;;;;9.20;8.20;;;31.20;94.00;;;32.57;42.03;98456.56;5171279;28;20590;-77
2021/08/13 09:44:42;;;;;;;9.18;8.38;;;31.30;93.40;;;32.46;42.28;98453.28;5175218;28;20277;-77
2021/08/13 09:47:16;;;;;;;9.70;8.80;;;31.20;93.80;;;32.46;43.75;98442.69;5176968;28;20203;-77
2021/08/13 09:49:55;;;;;;;9.02;8.23;;;31.20;94.80;;;32.45;43.78;98448.84;5170887;28;20198;-77
2021/08/13 09:52:28;;;;;;;9.48;8.57;;;31.40;94.60;;;32.40;44.27;98448.09;5172921;28;20265;-77
2021/08/13 09:55:28;;;;;;;9.52;8.63;;;31.40;94.70;;;32.47;43.98;98447.94;5172558;28;20466;-77
2021/08/13 09:58:01;;;;;;;8.07;7.28;;;31.50;94.60;;;32.57;42.77;98448.63;5182804;28;20196;-76
2021/08/13 10:00:44;;;;;;;9.15;8.30;;;31.50;94.00;;;32.67;42.39;98450.16;5169293;28;20310;-77
2021/08/13 10:03:19;;;;;;;8.43;7.70;;;31.50;93.50;;;32.74;42.84;98446.47;5158413;28;20233;-77
2021/08/13 10:06:03;;;;;;;9.23;8.32;;;31.50;93.80;;;32.85;41.40;98437.41;5168759;28;20256;-77
2021/08/13 10:08:42;;;;;;;8.45;7.60;;;31.60;93.00;;;32.73;42.67;98439.41;5171055;28;20296;-77
2021/08/13 10:11:15;;;;;;;8.90;8.10;;;31.50;93.90;;;32.79;42.20;98442.84;5175113;28;20265;-77
2021/08/13 10:13:48;;;;;;;8.98;7.93;;;31.60;93.60;;;32.71;43.10;98441.25;5176191;28;20240;-76
2021/08/13 10:16:23;;;;;;;9.07;7.75;;;31.50;93.90;;;32.77;42.49;98447.31;5171533;28;20600;-77
2021/08/13 10:18:59;;;;;;;9.70;8.70;;;31.70;93.70;;;32.78;42.17;98435.81;5172073;28;20221;-76
2021/08/13 10:21:32;;;;;;;8.98;8.15;;;31.60;93.30;;;32.83;42.44;98433.94;5171859;28;20301;-77
2021/08/13 10:24:06;;;;;;;9.98;8.63;;;31.50;93.60;;;32.92;42.30;98423.13;5180858;28;20285;-77
2021/08/13 10:26:39;;;;;;;9.18;8.25;;;31.40;93.60;;;32.76;42.93;98438.47;5171462;28;20285;-77
2021/08/13 10:29:13;;;;;;;9.65;8.75;;;31.40;93.90;;;32.69;42.60;98443.06;5172873;28;20206;-77
2021/08/13 10:31:46;;;;;;;9.13;8.32;;;31.30;93.80;;;32.58;42.52;98439.78;5168929;28;20300;-77
2021/08/13 10:34:21;;;;;;;9.20;8.35;;;31.30;93.70;;;32.67;42.48;98433.41;5167260;28;20203;-77
2021/08/13 10:36:55;;;;;;;8.73;8.02;;;31.10;94.00;;;32.47;43.48;98436.50;5169233;28;20284;-77
2021/08/13 10:39:32;;;;;;;8.93;7.88;;;31.10;94.30;;;32.41;44.04;98437.47;5181608;28;20293;-75